sensor_id;sensor_type;location;lat;lon;timestamp;temperature;humidity
41592;DHT22;28026;48.562;14.440;2023-08-31T00:00:54;12.20;99.90
41592;DHT22;28026;48.562;14.440;2023-08-31T00:03:24;12.20;99.90
41592;DHT22;28026;48.562;14.440;2023-08-31T00:05:55;12.20;99.90
41592;DHT22;28026;48.562;14.440;2023-08-31T00:08:27;12.10;99.90
41592;DHT22;28026;48.562;14.440;2023-08-31T00:10:59;12.10;99.90
41592;DHT22;28026;48.562;14.440;2023-08-31T00:13:30;12.10;99.90
41592;DHT22;28026;48.562;14.440;2023-08-31T00:16:01;12.10;99.90
41592;DHT22;28026;48.562;14.440;2023-08-31T00:18:33;12.10;99.90
41592;DHT22;28026;48.562;14.440;2023-08-31T00:21:04;12.00;99.90
41592;DHT22;28026;48.562;14.440;2023-08-31T00:23:35;12.00;99.90
41592;DHT22;28026;48.562;14.440;2023-08-31T00:26:07;12.00;99.90
41592;DHT22;28026;48.562;14.440;2023-08-31T00:28:39;12.00;99.90
41592;DHT22;28026;48.562;14.440;2023-08-31T00:31:10;12.00;99.90
41592;DHT22;28026;48.562;14.440;2023-08-31T00:33:41;12.00;99.90
41592;DHT22;28026;48.562;14.440;2023-08-31T00:36:13;12.00;99.90
41592;DHT22;28026;48.562;14.440;2023-08-31T00:38:44;12.10;99.90
41592;DHT22;28026;48.562;14.440;2023-08-31T00:41:15;12.20;99.90
41592;DHT22;28026;48.562;14.440;2023-08-31T00:43:46;12.10;99.90
41592;DHT22;28026;48.562;14.440;2023-08-31T00:46:17;12.10;99.90
41592;DHT22;28026;48.562;14.440;2023-08-31T00:48:48;12.10;99.90
41592;DHT22;28026;48.562;14.440;2023-08-31T00:51:20;12.00;99.90
41592;DHT22;28026;48.562;14.440;2023-08-31T00:53:52;12.00;99.90
41592;DHT22;28026;48.562;14.440;2023-08-31T00:56:26;12.00;99.90
41592;DHT22;28026;48.562;14.440;2023-08-31T00:58:57;12.00;99.90
41592;DHT22;28026;48.562;14.440;2023-08-31T01:01:41;12.00;99.90
41592;DHT22;28026;48.562;14.440;2023-08-31T01:08:07;12.00;99.90
41592;DHT22;28026;48.562;14.440;2023-08-31T01:14:33;12.10;99.90
41592;DHT22;28026;48.562;14.440;2023-08-31T01:17:15;12.10;99.90
41592;DHT22;28026;48.562;14.440;2023-08-31T01:25:13;12.00;99.90
41592;DHT22;28026;48.562;14.440;2023-08-31T01:27:45;12.10;99.90
41592;DHT22;28026;48.562;14.440;2023-08-31T01:30:16;12.00;99.90
41592;DHT22;28026;48.562;14.440;2023-08-31T01:32:47;12.00;99.90
41592;DHT22;28026;48.562;14.440;2023-08-31T01:35:18;12.00;99.90
41592;DHT22;28026;48.562;14.440;2023-08-31T01:38:02;11.90;99.90
41592;DHT22;28026;48.562;14.440;2023-08-31T01:43:17;12.00;99.90
41592;DHT22;28026;48.562;14.440;2023-08-31T01:45:49;12.10;99.90
41592;DHT22;28026;48.562;14.440;2023-08-31T01:48:21;12.10;99.90
41592;DHT22;28026;48.562;14.440;2023-08-31T01:50:52;12.10;99.90
41592;DHT22;28026;48.562;14.440;2023-08-31T01:53:23;12.10;99.90
41592;DHT22;28026;48.562;14.440;2023-08-31T01:55:54;12.20;99.90
41592;DHT22;28026;48.562;14.440;2023-08-31T01:58:25;12.10;99.90
41592;DHT22;28026;48.562;14.440;2023-08-31T02:00:55;12.10;99.90
41592;DHT22;28026;48.562;14.440;2023-08-31T02:03:27;12.10;99.90
41592;DHT22;28026;48.562;14.440;2023-08-31T02:05:58;12.00;99.90
41592;DHT22;28026;48.562;14.440;2023-08-31T02:08:28;12.00;99.90
41592;DHT22;28026;48.562;14.440;2023-08-31T02:10:59;11.90;99.90
41592;DHT22;28026;48.562;14.440;2023-08-31T02:13:30;12.00;99.90
41592;DHT22;28026;48.562;14.440;2023-08-31T02:16:01;12.00;99.90
41592;DHT22;28026;48.562;14.440;2023-08-31T02:18:32;12.00;99.90
41592;DHT22;28026;48.562;14.440;2023-08-31T02:21:03;12.00;99.90
41592;DHT22;28026;48.562;14.440;2023-08-31T02:23:37;12.00;99.90
41592;DHT22;28026;48.562;14.440;2023-08-31T02:26:08;12.00;99.90
41592;DHT22;28026;48.562;14.440;2023-08-31T02:28:39;12.10;99.90
41592;DHT22;28026;48.562;14.440;2023-08-31T02:31:10;12.00;99.90
41592;DHT22;28026;48.562;14.440;2023-08-31T02:33:45;11.90;99.90
41592;DHT22;28026;48.562;14.440;2023-08-31T02:36:17;11.90;99.90
41592;DHT22;28026;48.562;14.440;2023-08-31T02:38:48;11.80;99.90
41592;DHT22;28026;48.562;14.440;2023-08-31T02:41:20;11.80;99.90
41592;DHT22;28026;48.562;14.440;2023-08-31T02:43:51;11.80;99.90
41592;DHT22;28026;48.562;14.440;2023-08-31T02:46:23;11.80;99.90
41592;DHT22;28026;48.562;14.440;2023-08-31T02:48:54;11.80;99.90
41592;DHT22;28026;48.562;14.440;2023-08-31T02:51:25;11.80;99.90
41592;DHT22;28026;48.562;14.440;2023-08-31T02:53:56;11.70;99.90
41592;DHT22;28026;48.562;14.440;2023-08-31T02:56:27;11.70;99.90
41592;DHT22;28026;48.562;14.440;2023-08-31T02:58:58;11.70;99.90
41592;DHT22;28026;48.562;14.440;2023-08-31T03:01:28;11.70;99.90
41592;DHT22;28026;48.562;14.440;2023-08-31T03:03:59;11.70;99.90
41592;DHT22;28026;48.562;14.440;2023-08-31T03:06:32;11.60;99.90
41592;DHT22;28026;48.562;14.440;2023-08-31T03:09:03;11.60;99.90
41592;DHT22;28026;48.562;14.440;2023-08-31T03:11:34;11.60;99.90
41592;DHT22;28026;48.562;14.440;2023-08-31T03:14:05;11.60;99.90
41592;DHT22;28026;48.562;14.440;2023-08-31T03:16:36;11.50;99.90
41592;DHT22;28026;48.562;14.440;2023-08-31T03:19:07;11.50;99.90
41592;DHT22;28026;48.562;14.440;2023-08-31T03:21:38;11.50;99.90
41592;DHT22;28026;48.562;14.440;2023-08-31T03:24:09;11.50;99.90
41592;DHT22;28026;48.562;14.440;2023-08-31T03:26:40;11.50;99.90
41592;DHT22;28026;48.562;14.440;2023-08-31T03:29:11;11.50;99.90
41592;DHT22;28026;48.562;14.440;2023-08-31T03:31:42;11.50;99.90
41592;DHT22;28026;48.562;14.440;2023-08-31T03:34:13;11.60;99.90
41592;DHT22;28026;48.562;14.440;2023-08-31T03:36:44;11.60;99.90
41592;DHT22;28026;48.562;14.440;2023-08-31T03:39:15;11.70;99.90
41592;DHT22;28026;48.562;14.440;2023-08-31T03:41:46;11.70;99.90
41592;DHT22;28026;48.562;14.440;2023-08-31T03:44:16;11.80;99.90
41592;DHT22;28026;48.562;14.440;2023-08-31T03:46:47;11.80;99.90
41592;DHT22;28026;48.562;14.440;2023-08-31T03:49:18;11.70;99.90
41592;DHT22;28026;48.562;14.440;2023-08-31T03:51:49;11.60;99.90
41592;DHT22;28026;48.562;14.440;2023-08-31T03:54:20;11.70;99.90
41592;DHT22;28026;48.562;14.440;2023-08-31T03:56:51;11.60;99.90
41592;DHT22;28026;48.562;14.440;2023-08-31T03:59:22;11.60;99.90
41592;DHT22;28026;48.562;14.440;2023-08-31T04:01:53;11.50;99.90
41592;DHT22;28026;48.562;14.440;2023-08-31T04:04:24;11.50;99.90
41592;DHT22;28026;48.562;14.440;2023-08-31T04:06:55;11.50;99.90
41592;DHT22;28026;48.562;14.440;2023-08-31T04:09:26;11.40;99.90
41592;DHT22;28026;48.562;14.440;2023-08-31T04:11:57;11.40;99.90
41592;DHT22;28026;48.562;14.440;2023-08-31T04:14:28;11.40;99.90
41592;DHT22;28026;48.562;14.440;2023-08-31T04:16:59;11.40;99.90
41592;DHT22;28026;48.562;14.440;2023-08-31T04:19:30;11.50;99.90
41592;DHT22;28026;48.562;14.440;2023-08-31T04:22:01;11.60;99.90
41592;DHT22;28026;48.562;14.440;2023-08-31T04:24:34;11.60;99.90
41592;DHT22;28026;48.562;14.440;2023-08-31T04:27:05;11.70;99.90
41592;DHT22;28026;48.562;14.440;2023-08-31T04:29:36;11.60;99.90
41592;DHT22;28026;48.562;14.440;2023-08-31T04:32:07;11.60;99.90
41592;DHT22;28026;48.562;14.440;2023-08-31T04:34:38;11.30;99.90
41592;DHT22;28026;48.562;14.440;2023-08-31T04:37:09;11.40;99.90
41592;DHT22;28026;48.562;14.440;2023-08-31T04:39:40;11.50;99.90
41592;DHT22;28026;48.562;14.440;2023-08-31T04:42:11;11.60;99.90
41592;DHT22;28026;48.562;14.440;2023-08-31T04:44:43;11.70;99.90
41592;DHT22;28026;48.562;14.440;2023-08-31T04:47:14;11.70;99.90
41592;DHT22;28026;48.562;14.440;2023-08-31T04:49:45;11.80;99.90
41592;DHT22;28026;48.562;14.440;2023-08-31T04:52:15;11.90;99.90
41592;DHT22;28026;48.562;14.440;2023-08-31T04:54:46;11.90;99.90
41592;DHT22;28026;48.562;14.440;2023-08-31T04:57:17;11.90;99.90
41592;DHT22;28026;48.562;14.440;2023-08-31T04:59:50;11.90;99.90
41592;DHT22;28026;48.562;14.440;2023-08-31T05:02:21;11.90;99.90
41592;DHT22;28026;48.562;14.440;2023-08-31T05:04:52;12.00;99.90
41592;DHT22;28026;48.562;14.440;2023-08-31T05:07:23;12.10;99.90
41592;DHT22;28026;48.562;14.440;2023-08-31T05:09:53;12.00;99.90
41592;DHT22;28026;48.562;14.440;2023-08-31T05:12:24;12.00;99.90
41592;DHT22;28026;48.562;14.440;2023-08-31T05:14:55;11.90;99.90
41592;DHT22;28026;48.562;14.440;2023-08-31T05:17:26;11.90;99.90
41592;DHT22;28026;48.562;14.440;2023-08-31T05:20:01;12.00;99.90
41592;DHT22;28026;48.562;14.440;2023-08-31T05:22:38;12.00;99.90
41592;DHT22;28026;48.562;14.440;2023-08-31T05:25:09;12.10;99.90
41592;DHT22;28026;48.562;14.440;2023-08-31T05:27:40;12.20;99.90
41592;DHT22;28026;48.562;14.440;2023-08-31T05:30:11;12.20;99.90
41592;DHT22;28026;48.562;14.440;2023-08-31T05:32:42;12.30;99.90
41592;DHT22;28026;48.562;14.440;2023-08-31T05:35:13;12.40;99.90
41592;DHT22;28026;48.562;14.440;2023-08-31T05:37:44;12.30;99.90
41592;DHT22;28026;48.562;14.440;2023-08-31T05:40:15;12.40;99.90
41592;DHT22;28026;48.562;14.440;2023-08-31T05:42:47;12.80;99.90
41592;DHT22;28026;48.562;14.440;2023-08-31T05:45:18;12.80;99.90
41592;DHT22;28026;48.562;14.440;2023-08-31T05:47:49;12.80;99.90
41592;DHT22;28026;48.562;14.440;2023-08-31T05:50:19;12.90;99.90
41592;DHT22;28026;48.562;14.440;2023-08-31T05:52:50;12.90;99.90
41592;DHT22;28026;48.562;14.440;2023-08-31T05:55:21;12.90;99.90
41592;DHT22;28026;48.562;14.440;2023-08-31T05:57:52;12.90;99.90
41592;DHT22;28026;48.562;14.440;2023-08-31T06:00:23;12.90;99.90
41592;DHT22;28026;48.562;14.440;2023-08-31T06:02:54;12.90;99.90
41592;DHT22;28026;48.562;14.440;2023-08-31T06:05:25;12.90;99.90
41592;DHT22;28026;48.562;14.440;2023-08-31T06:07:58;12.80;99.90
41592;DHT22;28026;48.562;14.440;2023-08-31T06:10:29;12.70;99.90
41592;DHT22;28026;48.562;14.440;2023-08-31T06:13:00;12.70;99.90
41592;DHT22;28026;48.562;14.440;2023-08-31T06:15:31;12.70;99.90
41592;DHT22;28026;48.562;14.440;2023-08-31T06:18:01;12.60;99.90
41592;DHT22;28026;48.562;14.440;2023-08-31T06:20:33;12.60;99.90
41592;DHT22;28026;48.562;14.440;2023-08-31T06:23:04;12.70;99.90
41592;DHT22;28026;48.562;14.440;2023-08-31T06:25:34;12.80;99.90
41592;DHT22;28026;48.562;14.440;2023-08-31T06:28:06;12.80;99.90
41592;DHT22;28026;48.562;14.440;2023-08-31T06:30:39;13.00;99.90
41592;DHT22;28026;48.562;14.440;2023-08-31T06:33:16;13.00;99.90
41592;DHT22;28026;48.562;14.440;2023-08-31T06:35:48;12.90;99.90
41592;DHT22;28026;48.562;14.440;2023-08-31T06:38:22;12.90;99.90
41592;DHT22;28026;48.562;14.440;2023-08-31T06:40:52;12.90;99.90
41592;DHT22;28026;48.562;14.440;2023-08-31T06:43:28;12.90;99.90
41592;DHT22;28026;48.562;14.440;2023-08-31T06:45:59;13.00;99.90
41592;DHT22;28026;48.562;14.440;2023-08-31T06:48:30;13.00;99.90
41592;DHT22;28026;48.562;14.440;2023-08-31T06:51:01;13.00;99.90
41592;DHT22;28026;48.562;14.440;2023-08-31T06:53:34;13.00;99.90
41592;DHT22;28026;48.562;14.440;2023-08-31T06:56:04;13.10;99.90
41592;DHT22;28026;48.562;14.440;2023-08-31T06:58:35;12.90;99.90
41592;DHT22;28026;48.562;14.440;2023-08-31T07:01:06;13.10;99.90
41592;DHT22;28026;48.562;14.440;2023-08-31T07:03:37;13.60;99.90
41592;DHT22;28026;48.562;14.440;2023-08-31T07:06:08;13.70;99.90
41592;DHT22;28026;48.562;14.440;2023-08-31T07:08:39;13.80;99.90
41592;DHT22;28026;48.562;14.440;2023-08-31T07:11:11;14.00;99.90
41592;DHT22;28026;48.562;14.440;2023-08-31T07:13:42;14.00;99.90
41592;DHT22;28026;48.562;14.440;2023-08-31T07:16:13;14.00;99.90
41592;DHT22;28026;48.562;14.440;2023-08-31T07:18:43;14.40;99.90
41592;DHT22;28026;48.562;14.440;2023-08-31T07:21:14;14.80;99.90
41592;DHT22;28026;48.562;14.440;2023-08-31T07:23:45;14.90;99.90
41592;DHT22;28026;48.562;14.440;2023-08-31T07:26:16;14.60;99.90
41592;DHT22;28026;48.562;14.440;2023-08-31T07:28:47;14.20;99.90
41592;DHT22;28026;48.562;14.440;2023-08-31T07:31:18;13.80;99.90
41592;DHT22;28026;48.562;14.440;2023-08-31T07:33:49;13.80;99.90
41592;DHT22;28026;48.562;14.440;2023-08-31T07:36:20;13.90;99.90
41592;DHT22;28026;48.562;14.440;2023-08-31T07:38:50;13.80;99.90
41592;DHT22;28026;48.562;14.440;2023-08-31T07:41:21;13.90;99.90
41592;DHT22;28026;48.562;14.440;2023-08-31T07:43:52;13.70;99.90
41592;DHT22;28026;48.562;14.440;2023-08-31T07:46:23;14.20;99.90
41592;DHT22;28026;48.562;14.440;2023-08-31T07:48:54;14.70;99.90
41592;DHT22;28026;48.562;14.440;2023-08-31T07:51:26;15.00;99.90
41592;DHT22;28026;48.562;14.440;2023-08-31T07:53:57;14.80;99.90
41592;DHT22;28026;48.562;14.440;2023-08-31T07:56:30;14.80;99.90
41592;DHT22;28026;48.562;14.440;2023-08-31T07:59:00;14.70;99.90
41592;DHT22;28026;48.562;14.440;2023-08-31T08:01:32;15.10;99.90
41592;DHT22;28026;48.562;14.440;2023-08-31T08:04:03;15.20;99.90
41592;DHT22;28026;48.562;14.440;2023-08-31T08:06:34;15.10;99.90
41592;DHT22;28026;48.562;14.440;2023-08-31T08:09:05;14.80;99.90
41592;DHT22;28026;48.562;14.440;2023-08-31T08:11:36;14.20;99.90
41592;DHT22;28026;48.562;14.440;2023-08-31T08:14:07;14.20;99.90
41592;DHT22;28026;48.562;14.440;2023-08-31T08:16:37;14.30;99.90
41592;DHT22;28026;48.562;14.440;2023-08-31T08:19:08;14.80;99.90
41592;DHT22;28026;48.562;14.440;2023-08-31T08:21:39;15.30;99.90
41592;DHT22;28026;48.562;14.440;2023-08-31T08:24:10;15.40;99.90
41592;DHT22;28026;48.562;14.440;2023-08-31T08:26:41;16.00;99.90
41592;DHT22;28026;48.562;14.440;2023-08-31T08:29:12;15.50;99.90
41592;DHT22;28026;48.562;14.440;2023-08-31T08:31:43;15.30;99.90
41592;DHT22;28026;48.562;14.440;2023-08-31T08:34:14;15.10;99.90
41592;DHT22;28026;48.562;14.440;2023-08-31T08:36:45;14.50;99.90
41592;DHT22;28026;48.562;14.440;2023-08-31T08:39:15;15.20;99.90
41592;DHT22;28026;48.562;14.440;2023-08-31T08:41:47;15.70;99.90
41592;DHT22;28026;48.562;14.440;2023-08-31T08:44:19;15.60;99.90
41592;DHT22;28026;48.562;14.440;2023-08-31T08:46:57;15.90;99.90
41592;DHT22;28026;48.562;14.440;2023-08-31T08:49:34;16.20;99.90
41592;DHT22;28026;48.562;14.440;2023-08-31T08:52:06;16.40;99.90
41592;DHT22;28026;48.562;14.440;2023-08-31T08:54:38;16.50;99.90
41592;DHT22;28026;48.562;14.440;2023-08-31T08:57:09;16.40;99.90
41592;DHT22;28026;48.562;14.440;2023-08-31T08:59:40;16.70;99.90
41592;DHT22;28026;48.562;14.440;2023-08-31T09:02:11;16.60;99.90
41592;DHT22;28026;48.562;14.440;2023-08-31T09:04:43;16.40;99.90
41592;DHT22;28026;48.562;14.440;2023-08-31T09:07:13;16.70;99.90
41592;DHT22;28026;48.562;14.440;2023-08-31T09:09:49;16.30;99.90
41592;DHT22;28026;48.562;14.440;2023-08-31T09:12:24;16.00;99.90
41592;DHT22;28026;48.562;14.440;2023-08-31T09:15:02;16.50;99.90
41592;DHT22;28026;48.562;14.440;2023-08-31T09:17:42;16.50;99.90
41592;DHT22;28026;48.562;14.440;2023-08-31T09:20:17;17.00;99.90
41592;DHT22;28026;48.562;14.440;2023-08-31T09:22:49;16.70;99.90
41592;DHT22;28026;48.562;14.440;2023-08-31T09:25:22;16.30;99.90
41592;DHT22;28026;48.562;14.440;2023-08-31T09:27:54;16.50;99.90
41592;DHT22;28026;48.562;14.440;2023-08-31T09:30:26;16.40;99.90
41592;DHT22;28026;48.562;14.440;2023-08-31T09:33:05;15.90;99.90
41592;DHT22;28026;48.562;14.440;2023-08-31T09:35:40;16.50;99.90
41592;DHT22;28026;48.562;14.440;2023-08-31T09:38:17;17.60;99.90
41592;DHT22;28026;48.562;14.440;2023-08-31T09:40:49;18.40;99.90
41592;DHT22;28026;48.562;14.440;2023-08-31T09:43:22;17.70;99.90
41592;DHT22;28026;48.562;14.440;2023-08-31T09:45:54;16.90;99.90
41592;DHT22;28026;48.562;14.440;2023-08-31T09:48:26;17.20;99.90
41592;DHT22;28026;48.562;14.440;2023-08-31T09:50:57;18.00;99.90
41592;DHT22;28026;48.562;14.440;2023-08-31T09:53:29;17.50;99.90
41592;DHT22;28026;48.562;14.440;2023-08-31T09:56:02;17.10;99.90
41592;DHT22;28026;48.562;14.440;2023-08-31T09:58:36;17.30;99.90
41592;DHT22;28026;48.562;14.440;2023-08-31T10:01:07;17.90;99.90
41592;DHT22;28026;48.562;14.440;2023-08-31T10:03:39;17.20;99.90
41592;DHT22;28026;48.562;14.440;2023-08-31T10:06:11;16.30;99.90
41592;DHT22;28026;48.562;14.440;2023-08-31T10:08:42;16.00;99.90
41592;DHT22;28026;48.562;14.440;2023-08-31T10:11:14;16.20;99.90
41592;DHT22;28026;48.562;14.440;2023-08-31T10:13:47;16.70;99.90
41592;DHT22;28026;48.562;14.440;2023-08-31T10:16:21;17.20;99.90
41592;DHT22;28026;48.562;14.440;2023-08-31T10:18:52;17.60;99.90
41592;DHT22;28026;48.562;14.440;2023-08-31T10:21:24;17.50;99.90
41592;DHT22;28026;48.562;14.440;2023-08-31T10:23:56;17.70;99.90
41592;DHT22;28026;48.562;14.440;2023-08-31T10:26:30;17.50;99.90
41592;DHT22;28026;48.562;14.440;2023-08-31T10:29:02;17.60;99.90
41592;DHT22;28026;48.562;14.440;2023-08-31T10:31:34;17.10;99.90
41592;DHT22;28026;48.562;14.440;2023-08-31T10:34:06;16.80;99.90
41592;DHT22;28026;48.562;14.440;2023-08-31T10:36:44;17.10;99.90
41592;DHT22;28026;48.562;14.440;2023-08-31T10:39:18;17.10;99.90
41592;DHT22;28026;48.562;14.440;2023-08-31T10:41:57;16.90;99.90
41592;DHT22;28026;48.562;14.440;2023-08-31T10:44:31;16.40;99.90
41592;DHT22;28026;48.562;14.440;2023-08-31T10:47:05;16.40;99.90
41592;DHT22;28026;48.562;14.440;2023-08-31T10:49:36;16.30;99.90
41592;DHT22;28026;48.562;14.440;2023-08-31T10:52:18;16.50;99.90
41592;DHT22;28026;48.562;14.440;2023-08-31T10:54:55;16.10;99.90
41592;DHT22;28026;48.562;14.440;2023-08-31T10:57:30;16.30;99.90
41592;DHT22;28026;48.562;14.440;2023-08-31T11:00:04;16.50;99.90
41592;DHT22;28026;48.562;14.440;2023-08-31T11:02:37;15.90;99.90
41592;DHT22;28026;48.562;14.440;2023-08-31T11:05:12;16.00;99.90
41592;DHT22;28026;48.562;14.440;2023-08-31T11:07:47;16.00;99.90
41592;DHT22;28026;48.562;14.440;2023-08-31T11:10:24;16.10;99.90
41592;DHT22;28026;48.562;14.440;2023-08-31T11:12:59;16.30;99.90
41592;DHT22;28026;48.562;14.440;2023-08-31T11:15:30;16.20;99.90
41592;DHT22;28026;48.562;14.440;2023-08-31T11:18:02;16.20;99.90
41592;DHT22;28026;48.562;14.440;2023-08-31T11:20:35;16.30;99.90
41592;DHT22;28026;48.562;14.440;2023-08-31T11:23:06;16.10;99.90
41592;DHT22;28026;48.562;14.440;2023-08-31T11:25:37;16.50;99.90
41592;DHT22;28026;48.562;14.440;2023-08-31T11:28:08;16.20;99.90
41592;DHT22;28026;48.562;14.440;2023-08-31T11:30:41;16.70;99.90
41592;DHT22;28026;48.562;14.440;2023-08-31T11:33:14;16.70;99.90
41592;DHT22;28026;48.562;14.440;2023-08-31T11:35:45;16.50;99.90
41592;DHT22;28026;48.562;14.440;2023-08-31T11:38:16;16.60;99.90
41592;DHT22;28026;48.562;14.440;2023-08-31T11:40:47;16.40;99.90
41592;DHT22;28026;48.562;14.440;2023-08-31T11:43:19;17.00;99.90
41592;DHT22;28026;48.562;14.440;2023-08-31T11:45:50;16.80;99.90
41592;DHT22;28026;48.562;14.440;2023-08-31T11:48:22;16.50;99.90
41592;DHT22;28026;48.562;14.440;2023-08-31T11:50:53;16.90;99.90
41592;DHT22;28026;48.562;14.440;2023-08-31T11:53:26;17.30;99.90
41592;DHT22;28026;48.562;14.440;2023-08-31T11:56:02;17.60;99.90
41592;DHT22;28026;48.562;14.440;2023-08-31T11:58:41;18.20;99.90
41592;DHT22;28026;48.562;14.440;2023-08-31T12:01:18;18.70;99.90
41592;DHT22;28026;48.562;14.440;2023-08-31T12:03:51;18.70;99.90
41592;DHT22;28026;48.562;14.440;2023-08-31T12:06:24;18.40;99.90
41592;DHT22;28026;48.562;14.440;2023-08-31T12:08:55;17.80;99.90
41592;DHT22;28026;48.562;14.440;2023-08-31T12:11:26;18.00;99.90
41592;DHT22;28026;48.562;14.440;2023-08-31T12:14:01;17.50;99.90
41592;DHT22;28026;48.562;14.440;2023-08-31T12:16:35;17.80;99.90
41592;DHT22;28026;48.562;14.440;2023-08-31T12:19:06;17.20;99.90
41592;DHT22;28026;48.562;14.440;2023-08-31T12:21:41;16.70;99.90
41592;DHT22;28026;48.562;14.440;2023-08-31T12:24:14;17.70;99.90
41592;DHT22;28026;48.562;14.440;2023-08-31T12:26:47;18.40;99.90
41592;DHT22;28026;48.562;14.440;2023-08-31T12:29:18;17.10;99.90
41592;DHT22;28026;48.562;14.440;2023-08-31T12:31:49;18.00;99.90
41592;DHT22;28026;48.562;14.440;2023-08-31T12:34:20;18.50;99.90
41592;DHT22;28026;48.562;14.440;2023-08-31T12:36:51;17.60;99.90
41592;DHT22;28026;48.562;14.440;2023-08-31T12:39:23;17.50;99.90
41592;DHT22;28026;48.562;14.440;2023-08-31T12:41:53;17.00;99.90
41592;DHT22;28026;48.562;14.440;2023-08-31T12:44:24;17.50;99.90
41592;DHT22;28026;48.562;14.440;2023-08-31T12:46:56;16.40;99.90
41592;DHT22;28026;48.562;14.440;2023-08-31T12:49:27;15.90;99.90
41592;DHT22;28026;48.562;14.440;2023-08-31T12:51:57;16.10;99.90
41592;DHT22;28026;48.562;14.440;2023-08-31T12:54:28;17.00;99.90
41592;DHT22;28026;48.562;14.440;2023-08-31T12:56:59;18.30;99.90
41592;DHT22;28026;48.562;14.440;2023-08-31T12:59:30;18.40;99.90
41592;DHT22;28026;48.562;14.440;2023-08-31T13:02:01;18.20;99.90
41592;DHT22;28026;48.562;14.440;2023-08-31T13:04:37;18.10;99.90
41592;DHT22;28026;48.562;14.440;2023-08-31T13:07:08;18.80;99.90
41592;DHT22;28026;48.562;14.440;2023-08-31T13:09:39;18.70;99.90
41592;DHT22;28026;48.562;14.440;2023-08-31T13:12:10;18.80;99.90
41592;DHT22;28026;48.562;14.440;2023-08-31T13:14:44;19.00;99.90
41592;DHT22;28026;48.562;14.440;2023-08-31T13:17:15;19.20;99.90
41592;DHT22;28026;48.562;14.440;2023-08-31T13:19:45;19.80;99.90
41592;DHT22;28026;48.562;14.440;2023-08-31T13:22:16;18.60;99.90
41592;DHT22;28026;48.562;14.440;2023-08-31T13:24:47;18.90;99.90
41592;DHT22;28026;48.562;14.440;2023-08-31T13:27:18;19.10;99.90
41592;DHT22;28026;48.562;14.440;2023-08-31T13:29:50;19.10;99.90
41592;DHT22;28026;48.562;14.440;2023-08-31T13:32:22;18.20;99.90
41592;DHT22;28026;48.562;14.440;2023-08-31T13:34:53;17.50;99.90
41592;DHT22;28026;48.562;14.440;2023-08-31T13:37:24;17.80;99.90
41592;DHT22;28026;48.562;14.440;2023-08-31T13:39:55;18.00;99.90
41592;DHT22;28026;48.562;14.440;2023-08-31T13:42:32;17.90;99.90
41592;DHT22;28026;48.562;14.440;2023-08-31T13:45:08;17.70;99.90
41592;DHT22;28026;48.562;14.440;2023-08-31T13:47:40;18.40;99.90
41592;DHT22;28026;48.562;14.440;2023-08-31T13:50:17;18.40;99.90
41592;DHT22;28026;48.562;14.440;2023-08-31T13:52:48;18.10;99.90
41592;DHT22;28026;48.562;14.440;2023-08-31T13:55:19;18.50;99.90
41592;DHT22;28026;48.562;14.440;2023-08-31T13:57:50;18.90;99.90
41592;DHT22;28026;48.562;14.440;2023-08-31T14:00:21;18.30;99.90
41592;DHT22;28026;48.562;14.440;2023-08-31T14:02:52;17.70;99.90
41592;DHT22;28026;48.562;14.440;2023-08-31T14:05:23;17.20;99.90
41592;DHT22;28026;48.562;14.440;2023-08-31T14:07:53;17.60;99.90
41592;DHT22;28026;48.562;14.440;2023-08-31T14:10:25;18.40;99.90
41592;DHT22;28026;48.562;14.440;2023-08-31T14:12:55;18.70;99.90
41592;DHT22;28026;48.562;14.440;2023-08-31T14:15:26;18.60;99.90
41592;DHT22;28026;48.562;14.440;2023-08-31T14:17:57;18.10;99.90
41592;DHT22;28026;48.562;14.440;2023-08-31T14:20:28;18.10;99.90
41592;DHT22;28026;48.562;14.440;2023-08-31T14:22:59;17.60;99.90
41592;DHT22;28026;48.562;14.440;2023-08-31T14:25:37;17.70;99.90
41592;DHT22;28026;48.562;14.440;2023-08-31T14:28:08;17.70;99.90
41592;DHT22;28026;48.562;14.440;2023-08-31T14:30:39;17.50;99.90
41592;DHT22;28026;48.562;14.440;2023-08-31T14:33:10;17.50;99.90
41592;DHT22;28026;48.562;14.440;2023-08-31T14:35:41;17.80;99.90
41592;DHT22;28026;48.562;14.440;2023-08-31T14:38:12;18.10;99.90
41592;DHT22;28026;48.562;14.440;2023-08-31T14:40:52;17.90;99.90
41592;DHT22;28026;48.562;14.440;2023-08-31T14:43:22;18.20;99.90
41592;DHT22;28026;48.562;14.440;2023-08-31T14:45:53;17.60;99.90
41592;DHT22;28026;48.562;14.440;2023-08-31T14:48:24;17.30;99.90
41592;DHT22;28026;48.562;14.440;2023-08-31T14:50:55;17.20;99.90
41592;DHT22;28026;48.562;14.440;2023-08-31T14:53:29;17.00;99.90
41592;DHT22;28026;48.562;14.440;2023-08-31T14:55:59;16.70;99.90
41592;DHT22;28026;48.562;14.440;2023-08-31T14:58:30;16.90;99.90
41592;DHT22;28026;48.562;14.440;2023-08-31T15:01:01;16.70;99.90
41592;DHT22;28026;48.562;14.440;2023-08-31T15:03:32;16.70;99.90
41592;DHT22;28026;48.562;14.440;2023-08-31T15:06:03;16.70;99.90
41592;DHT22;28026;48.562;14.440;2023-08-31T15:08:38;16.60;99.90
41592;DHT22;28026;48.562;14.440;2023-08-31T15:11:11;16.60;99.90
41592;DHT22;28026;48.562;14.440;2023-08-31T15:13:42;16.80;99.90
41592;DHT22;28026;48.562;14.440;2023-08-31T15:16:13;17.10;99.90
41592;DHT22;28026;48.562;14.440;2023-08-31T15:18:44;17.70;99.90
41592;DHT22;28026;48.562;14.440;2023-08-31T15:21:18;17.50;99.90
41592;DHT22;28026;48.562;14.440;2023-08-31T15:23:49;17.20;99.90
41592;DHT22;28026;48.562;14.440;2023-08-31T15:26:21;16.50;99.90
41592;DHT22;28026;48.562;14.440;2023-08-31T15:28:52;17.00;99.90
41592;DHT22;28026;48.562;14.440;2023-08-31T15:31:23;16.90;99.90
41592;DHT22;28026;48.562;14.440;2023-08-31T15:33:53;17.00;99.90
41592;DHT22;28026;48.562;14.440;2023-08-31T15:36:24;16.50;99.90
41592;DHT22;28026;48.562;14.440;2023-08-31T15:38:55;16.60;99.90
41592;DHT22;28026;48.562;14.440;2023-08-31T15:41:26;16.60;99.90
41592;DHT22;28026;48.562;14.440;2023-08-31T15:44:04;16.60;99.90
41592;DHT22;28026;48.562;14.440;2023-08-31T15:46:35;16.50;99.90
41592;DHT22;28026;48.562;14.440;2023-08-31T15:49:05;16.40;99.90
41592;DHT22;28026;48.562;14.440;2023-08-31T15:51:36;16.40;99.90
41592;DHT22;28026;48.562;14.440;2023-08-31T15:54:07;16.00;99.90
41592;DHT22;28026;48.562;14.440;2023-08-31T15:56:38;15.90;99.90
41592;DHT22;28026;48.562;14.440;2023-08-31T15:59:09;16.10;99.90